Time;durP1;ratioP1;P1;durP2;ratioP2;P2;SDS_P1;SDS_P2;PMS_P1;PMS_P2;Temp;Humidity;BMP_temperature;BMP_pressure;BME280_temperature;BME280_humidity;BME280_pressure;Samples;Min_cycle;Max_cycle;Signal;HPM_P1;HPM_P2
2022/07/23 00:00:54;;;;;;;14.55;8.25;;;11.80;99.90;;;;;;5034922;28;20042;-28
2022/07/23 00:03:19;;;;;;;14.82;8.18;;;11.70;99.90;;;;;;5035195;28;20047;-28
2022/07/23 00:05:45;;;;;;;13.32;8.65;;;11.60;99.90;;;;;;5034775;28;20053;-28
2022/07/23 00:08:11;;;;;;;15.30;8.55;;;11.70;99.90;;;;;;5034946;28;20395;-29
2022/07/23 00:10:37;;;;;;;14.68;8.95;;;11.70;99.90;;;;;;5035295;28;20080;-28
2022/07/23 00:13:02;;;;;;;11.85;8.95;;;11.60;99.90;;;;;;5034996;28;20455;-28
2022/07/23 00:15:28;;;;;;;18.20;8.23;;;11.60;99.90;;;;;;5050367;28;20124;-28
2022/07/23 00:17:54;;;;;;;11.70;8.23;;;11.60;99.90;;;;;;5034808;28;20049;-28
2022/07/23 00:20:20;;;;;;;15.45;8.68;;;11.60;99.90;;;;;;5034855;28;20136;-29
2022/07/23 00:22:55;;;;;;;14.13;8.52;;;11.60;99.90;;;;;;5017068;28;20052;-28
2022/07/23 00:25:22;;;;;;;12.30;8.38;;;11.70;99.90;;;;;;5035017;28;20041;-29
2022/07/23 00:27:48;;;;;;;13.23;8.02;;;11.70;99.90;;;;;;5034684;28;20044;-28
2022/07/23 00:30:14;;;;;;;13.75;8.38;;;11.70;99.90;;;;;;5034663;28;20049;-29
2022/07/23 00:32:50;;;;;;;13.32;8.32;;;11.60;99.90;;;;;;5034592;28;20053;-28
2022/07/23 00:35:18;;;;;;;10.23;6.90;;;11.60;99.90;;;;;;5034443;28;20137;-28
2022/07/23 00:37:44;;;;;;;12.20;7.50;;;11.50;99.90;;;;;;5034414;28;20045;-28
2022/07/23 00:40:11;;;;;;;13.40;7.57;;;11.50;99.90;;;;;;5034419;28;20075;-28
2022/07/23 00:42:36;;;;;;;14.77;8.07;;;11.50;99.90;;;;;;5034444;28;20052;-28
2022/07/23 00:45:03;;;;;;;10.15;7.80;;;11.50;99.90;;;;;;5034433;28;20053;-29
2022/07/23 00:47:29;;;;;;;12.27;8.05;;;11.50;99.90;;;;;;5033155;28;20052;-28
2022/07/23 00:49:54;;;;;;;11.38;7.68;;;11.50;99.90;;;;;;5034345;28;20053;-28
2022/07/23 00:52:20;;;;;;;11.30;7.70;;;11.50;99.90;;;;;;5034229;28;20136;-28
2022/07/23 00:54:46;;;;;;;16.65;8.77;;;11.50;99.90;;;;;;5050430;28;20068;-28
2022/07/23 00:57:12;;;;;;;11.18;9.15;;;11.60;99.90;;;;;;5034859;28;20041;-28
2022/07/23 00:59:41;;;;;;;14.18;8.90;;;11.60;1.00;;;;;;5034135;28;20048;-29
2022/07/23 01:02:07;;;;;;;13.18;7.88;;;11.70;1.00;;;;;;5034084;28;20045;-28
2022/07/23 01:04:33;;;;;;;15.98;8.50;;;11.80;1.00;;;;;;5034025;28;20041;-28
2022/07/23 01:06:59;;;;;;;12.27;8.43;;;11.90;1.00;;;;;;5032891;28;20049;-28
2022/07/23 01:09:25;;;;;;;14.18;9.00;;;11.90;1.00;;;;;;5034277;28;20133;-29
2022/07/23 01:11:51;;;;;;;14.98;7.95;;;12.00;1.00;;;;;;5033924;28;20045;-28
2022/07/23 01:14:21;;;;;;;10.70;8.00;;;12.00;1.00;;;;;;5034443;28;20046;-28
2022/07/23 01:16:48;;;;;;;10.10;7.65;;;12.00;1.00;;;;;;5034032;28;20541;-29
2022/07/23 01:19:14;;;;;;;13.38;8.38;;;11.90;1.00;;;;;;5032621;28;20119;-28
2022/07/23 01:21:42;;;;;;;932.90;89.50;;;11.90;1.00;;;;;;5033761;28;20133;-28
2022/07/23 01:24:09;;;;;;;1999.90;999.90;;;11.90;1.00;;;;;;5033975;28;20443;-28
2022/07/23 01:26:36;;;;;;;14.32;8.32;;;11.90;1.00;;;;;;5034289;28;20550;-28
2022/07/23 01:29:03;;;;;;;12.00;8.77;;;12.00;1.00;;;;;;5033710;28;20399;-28
2022/07/23 01:31:29;;;;;;;12.75;7.20;;;11.90;5.10;;;;;;5032998;28;20515;-28
2022/07/23 01:33:54;;;;;;;13.23;7.18;;;11.90;1.00;;;;;;5033659;28;20042;-29
2022/07/23 01:36:20;;;;;;;13.13;7.20;;;12.00;1.00;;;;;;5034117;28;20148;-28
2022/07/23 01:38:46;;;;;;;433.80;213.27;;;11.90;1.00;;;;;;5033583;28;20049;-28
2022/07/23 01:41:11;;;;;;;14.68;8.50;;;11.90;1.00;;;;;;5032948;28;20041;-28
2022/07/23 01:43:37;;;;;;;10.20;7.72;;;11.90;1.00;;;;;;5033572;28;20091;-28
2022/07/23 01:46:03;;;;;;;14.50;8.88;;;11.90;13.60;;;;;;5033804;28;20045;-28
2022/07/23 01:48:29;;;;;;;13.15;9.02;;;12.00;46.20;;;;;;5037708;28;20046;-28
2022/07/23 01:50:54;;;;;;;12.30;8.57;;;12.00;77.80;;;;;;5037433;28;20585;-28
2022/07/23 01:53:20;;;;;;;12.18;9.02;;;12.10;99.90;;;;;;5037580;28;20085;-28
2022/07/23 01:55:46;;;;;;;11.60;8.65;;;12.20;99.90;;;;;;5036308;28;20171;-28
2022/07/23 01:58:12;;;;;;;13.48;9.45;;;12.20;99.90;;;;;;5036408;28;20052;-28
2022/07/23 02:00:37;;;;;;;11.85;7.97;;;12.20;99.90;;;;;;5037440;28;20042;-28
2022/07/23 02:03:03;;;;;;;12.32;7.43;;;12.20;99.90;;;;;;5038260;28;20048;-28
2022/07/23 02:05:30;;;;;;;12.63;7.53;;;12.20;99.90;;;;;;5037310;28;20450;-28
2022/07/23 02:07:57;;;;;;;13.77;8.23;;;12.20;99.90;;;;;;5036370;28;20141;-28
2022/07/23 02:10:22;;;;;;;15.20;8.68;;;12.20;99.90;;;;;;5037823;28;20049;-28
2022/07/23 02:12:48;;;;;;;12.82;9.02;;;12.20;99.90;;;;;;5037235;28;20115;-28
2022/07/23 02:15:14;;;;;;;13.05;7.82;;;12.20;99.90;;;;;;5037746;28;20045;-29
2022/07/23 02:17:39;;;;;;;15.52;9.15;;;12.20;99.90;;;;;;5036521;28;20112;-28
2022/07/23 02:20:07;;;;;;;15.18;9.02;;;12.20;99.90;;;;;;5037097;28;20046;-28
2022/07/23 02:22:33;;;;;;;10.38;8.20;;;12.20;99.90;;;;;;5037031;28;20053;-28
2022/07/23 02:24:59;;;;;;;11.75;8.35;;;12.20;99.90;;;;;;5037743;28;20049;-28
2022/07/23 02:27:25;;;;;;;13.50;9.10;;;12.20;99.90;;;;;;5037044;28;20063;-28
2022/07/23 02:29:51;;;;;;;13.55;9.30;;;12.20;99.90;;;;;;5035763;28;20046;-29
2022/07/23 02:32:16;;;;;;;15.73;9.23;;;12.20;99.90;;;;;;5037439;28;20124;-30
2022/07/23 02:34:42;;;;;;;12.48;9.05;;;12.30;99.90;;;;;;5037408;28;20045;-28
2022/07/23 02:37:08;;;;;;;14.70;9.63;;;12.30;99.90;;;;;;5037558;28;20045;-28
2022/07/23 02:39:35;;;;;;;15.02;9.60;;;12.20;99.90;;;;;;5035592;28;20041;-28
2022/07/23 02:42:01;;;;;;;15.55;9.27;;;12.30;99.90;;;;;;5036382;28;20415;-28
2022/07/23 02:44:27;;;;;;;13.95;8.82;;;12.30;99.90;;;;;;5052025;28;20060;-28
2022/07/23 02:46:52;;;;;;;17.25;10.40;;;12.30;99.90;;;;;;5035644;28;20128;-28
2022/07/23 02:49:19;;;;;;;12.45;9.20;;;12.30;99.90;;;;;;5036851;28;20088;-28
2022/07/23 02:51:44;;;;;;;17.08;9.77;;;12.20;99.90;;;;;;5036493;28;20487;-28
2022/07/23 02:54:10;;;;;;;16.25;10.00;;;12.20;99.90;;;;;;5036774;28;20042;-28
2022/07/23 02:56:36;;;;;;;14.82;9.73;;;12.20;99.90;;;;;;5035160;28;20458;-28
2022/07/23 02:59:04;;;;;;;15.70;9.80;;;12.20;99.90;;;;;;5035415;28;20480;-28
2022/07/23 03:01:29;;;;;;;15.80;11.07;;;12.20;99.90;;;;;;5036596;28;20404;-28
2022/07/23 03:03:55;;;;;;;21.38;10.00;;;12.20;99.90;;;;;;5036303;28;20046;-30
2022/07/23 03:06:23;;;;;;;17.42;10.25;;;12.20;99.90;;;;;;5035847;28;20065;-28
2022/07/23 03:08:49;;;;;;;16.45;9.80;;;12.10;99.90;;;;;;5036190;28;20096;-28
2022/07/23 03:11:15;;;;;;;16.60;10.20;;;12.10;99.90;;;;;;5036122;28;20084;-28
2022/07/23 03:13:41;;;;;;;16.35;9.77;;;12.10;99.90;;;;;;5034943;28;20060;-28
2022/07/23 03:16:07;;;;;;;15.75;10.05;;;12.20;99.90;;;;;;5035571;28;20042;-29
2022/07/23 03:18:33;;;;;;;16.33;10.48;;;12.30;99.90;;;;;;5036555;28;20411;-28
2022/07/23 03:21:03;;;;;;;18.17;9.48;;;12.30;99.90;;;;;;5035994;28;20052;-29
2022/07/23 03:23:29;;;;;;;18.83;10.93;;;12.40;99.90;;;;;;5035995;28;20052;-28
2022/07/23 03:25:55;;;;;;;12.63;8.40;;;12.50;99.90;;;;;;5034677;28;20053;-28
2022/07/23 03:28:21;;;;;;;17.60;10.15;;;12.50;99.90;;;;;;5035866;28;20045;-28
2022/07/23 03:30:48;;;;;;;16.17;10.57;;;12.50;99.90;;;;;;5034867;28;20045;-30
2022/07/23 03:33:16;;;;;;;16.15;10.20;;;12.60;1.00;;;;;;5035764;28;20056;-28
2022/07/23 03:35:42;;;;;;;17.50;10.25;;;12.60;1.00;;;;;;5050990;28;20050;-28
2022/07/23 03:38:08;;;;;;;15.35;9.75;;;12.70;1.00;;;;;;5035687;28;20052;-29
2022/07/23 03:40:36;;;;;;;13.75;9.18;;;12.80;1.00;;;;;;5035931;28;20128;-28
2022/07/23 03:43:02;;;;;;;11.43;8.10;;;12.90;1.00;;;;;;5035565;28;20549;-28
2022/07/23 03:45:27;;;;;;;14.02;8.50;;;12.90;1.00;;;;;;5035782;28;20085;-28
2022/07/23 03:47:53;;;;;;;11.15;7.57;;;12.90;99.90;;;;;;5035544;28;20372;-28
2022/07/23 03:50:23;;;;;;;12.52;8.35;;;12.90;99.90;;;;;;5035517;28;20060;-30
2022/07/23 03:52:53;;;;;;;12.13;8.57;;;12.90;99.90;;;;;;5035424;28;20120;-28
2022/07/23 03:55:19;;;;;;;10.90;8.20;;;12.80;99.90;;;;;;5034836;28;20041;-28
2022/07/23 03:57:45;;;;;;;12.65;9.65;;;12.80;99.90;;;;;;5035500;28;20041;-28
2022/07/23 04:00:12;;;;;;;15.43;8.63;;;12.70;99.90;;;;;;5034852;28;20171;-28
2022/07/23 04:02:41;;;;;;;13.13;9.23;;;12.70;99.90;;;;;;5033984;28;20427;-28
2022/07/23 04:05:07;;;;;;;13.77;8.63;;;12.70;99.90;;;;;;5034305;28;20491;-28
2022/07/23 04:07:33;;;;;;;16.65;9.90;;;12.70;99.90;;;;;;5034469;28;20048;-28
2022/07/23 04:09:59;;;;;;;13.50;8.68;;;12.70;99.90;;;;;;5034802;28;20128;-28
2022/07/23 04:12:25;;;;;;;12.00;8.48;;;12.80;99.90;;;;;;5034886;28;20053;-28
2022/07/23 04:14:50;;;;;;;15.05;8.95;;;12.80;99.90;;;;;;5034998;28;20470;-28
2022/07/23 04:17:16;;;;;;;10.05;7.32;;;12.90;99.90;;;;;;5034802;28;20084;-28
2022/07/23 04:19:43;;;;;;;12.85;8.93;;;12.90;99.90;;;;;;5034904;28;20088;-28
2022/07/23 04:22:10;;;;;;;16.15;8.25;;;12.90;99.90;;;;;;5035129;28;20077;-28
2022/07/23 04:24:36;;;;;;;11.07;7.07;;;13.00;99.90;;;;;;5033820;28;20146;-28
2022/07/23 04:27:02;;;;;;;9.60;6.53;;;13.00;99.90;;;;;;5033554;28;20089;-28
2022/07/23 04:29:28;;;;;;;16.85;8.05;;;13.00;99.90;;;;;;5035234;28;20072;-28
2022/07/23 04:31:53;;;;;;;10.95;7.95;;;13.00;99.90;;;;;;5033572;28;20049;-28
2022/07/23 04:34:19;;;;;;;16.35;7.05;;;12.90;99.90;;;;;;5034600;28;20049;-28
2022/07/23 04:36:45;;;;;;;15.10;7.50;;;13.00;99.90;;;;;;5016694;28;20041;-29
2022/07/23 04:39:11;;;;;;;15.13;8.00;;;13.00;99.90;;;;;;5034527;28;20099;-28
2022/07/23 04:41:36;;;;;;;12.70;7.80;;;13.10;99.90;;;;;;5033509;28;20132;-28
2022/07/23 04:44:02;;;;;;;10.52;6.05;;;13.10;99.90;;;;;;5033185;28;20411;-28
2022/07/23 04:46:30;;;;;;;13.55;7.28;;;13.10;99.90;;;;;;5033228;28;20079;-28
2022/07/23 04:48:56;;;;;;;11.93;6.95;;;13.20;99.90;;;;;;5034030;28;20400;-30
2022/07/23 04:51:22;;;;;;;9.27;6.22;;;13.20;99.90;;;;;;5034328;28;20049;-28
2022/07/23 04:53:48;;;;;;;12.80;7.18;;;13.20;99.90;;;;;;5034268;28;20049;-28
2022/07/23 04:56:13;;;;;;;10.52;6.88;;;13.20;99.90;;;;;;5033161;28;20050;-28
2022/07/23 04:58:39;;;;;;;13.27;8.18;;;13.20;99.90;;;;;;5032990;28;20045;-28
2022/07/23 05:01:05;;;;;;;12.98;7.25;;;13.20;99.90;;;;;;5034194;28;20049;-28
2022/07/23 05:03:31;;;;;;;11.95;6.38;;;13.20;99.90;;;;;;5034627;28;20392;-28
2022/07/23 05:05:56;;;;;;;11.77;6.75;;;13.10;89.60;;;;;;5034243;28;20131;-28
2022/07/23 05:08:25;;;;;;;11.80;8.38;;;13.10;69.00;;;;;;5034564;28;20049;-28
2022/07/23 05:10:51;;;;;;;10.20;7.80;;;13.00;32.50;;;;;;5032820;28;20046;-28
2022/07/23 05:13:17;;;;;;;10.85;7.10;;;13.00;19.50;;;;;;5033917;28;20487;-28
2022/07/23 05:15:43;;;;;;;12.68;7.07;;;13.00;1.00;;;;;;5034488;28;20045;-28
2022/07/23 05:18:09;;;;;;;8.65;7.65;;;12.90;1.00;;;;;;5016406;28;20531;-28
2022/07/23 05:20:35;;;;;;;12.77;7.72;;;12.80;3.10;;;;;;5033030;28;20137;-28
2022/07/23 05:23:00;;;;;;;10.40;7.80;;;12.90;96.30;;;;;;5033838;28;20107;-28
2022/07/23 05:25:26;;;;;;;11.40;7.20;;;13.00;99.90;;;;;;5034256;28;20435;-28
2022/07/23 05:27:52;;;;;;;9.73;7.57;;;13.20;99.90;;;;;;5032826;28;20053;-29
2022/07/23 05:30:18;;;;;;;8.90;6.78;;;13.30;99.90;;;;;;5032537;28;20128;-28
2022/07/23 05:32:43;;;;;;;10.48;6.05;;;13.40;99.90;;;;;;5033701;28;20049;-29
2022/07/23 05:35:09;;;;;;;10.32;7.15;;;13.50;99.90;;;;;;5032502;28;20176;-28
2022/07/23 05:37:37;;;;;;;11.13;7.25;;;13.60;99.90;;;;;;5032467;28;20091;-29
2022/07/23 05:40:07;;;;;;;9.73;6.15;;;13.70;99.90;;;;;;5032645;28;20076;-28
2022/07/23 05:42:42;;;;;;;10.32;6.03;;;13.70;75.80;;;;;;5033824;28;20085;-28
2022/07/23 05:45:08;;;;;;;12.60;5.28;;;13.80;14.00;;;;;;5033673;28;20045;-28
2022/07/23 05:47:41;;;;;;;9.85;6.15;;;13.90;1.00;;;;;;5033473;28;20042;-28
2022/07/23 05:50:07;;;;;;;7.47;5.80;;;13.90;1.00;;;;;;5034134;28;20050;-28
2022/07/23 05:52:33;;;;;;;8.43;5.18;;;14.00;1.00;;;;;;5049449;28;20041;-28
2022/07/23 05:54:59;;;;;;;7.38;5.55;;;14.10;1.00;;;;;;5033490;28;20407;-29
2022/07/23 05:57:24;;;;;;;10.95;5.30;;;14.20;1.00;;;;;;5033388;28;20487;-28
2022/07/23 05:59:50;;;;;;;7.30;4.60;;;14.30;1.00;;;;;;5033255;28;20049;-28
2022/07/23 06:02:16;;;;;;;7.53;4.80;;;14.30;1.00;;;;;;5033420;28;20052;-28
2022/07/23 06:04:42;;;;;;;6.70;4.40;;;14.50;1.00;;;;;;5048420;28;20049;-28
2022/07/23 06:07:07;;;;;;;7.47;4.50;;;14.60;99.90;;;;;;5032783;28;20050;-28
2022/07/23 06:09:33;;;;;;;5.00;3.25;;;14.70;1.00;;;;;;5033318;28;20380;-28
2022/07/23 06:11:59;;;;;;;4.57;3.08;;;15.00;99.90;;;;;;5032694;28;20052;-29
2022/07/23 06:14:24;;;;;;;5.07;3.33;;;15.10;99.90;;;;;;5032997;28;20072;-28
2022/07/23 06:16:50;;;;;;;6.63;3.00;;;15.10;99.90;;;;;;5032939;28;20045;-28
2022/07/23 06:19:16;;;;;;;8.23;3.08;;;15.40;99.90;;;;;;5032890;28;20053;-28
2022/07/23 06:21:41;;;;;;;6.65;2.05;;;15.40;1.00;;;;;;5015887;28;20053;-29
2022/07/23 06:24:07;;;;;;;5.30;2.47;;;15.30;1.00;;;;;;5015732;28;20099;-29
2022/07/23 06:26:33;;;;;;;4.40;2.50;;;15.90;1.00;;;;;;5032870;28;20403;-28
2022/07/23 06:28:59;;;;;;;4.55;2.10;;;16.80;99.90;;;;;;5015427;28;20049;-28
2022/07/23 06:31:24;;;;;;;3.47;2.45;;;17.10;1.00;;;;;;5033646;28;20049;-28
2022/07/23 06:33:50;;;;;;;6.47;2.20;;;17.80;99.90;;;;;;5036830;28;20549;-28
2022/07/23 06:36:16;;;;;;;2.88;1.15;;;18.20;99.90;;;;;;5036035;28;20048;-28
2022/07/23 06:38:41;;;;;;;3.75;1.88;;;18.40;1.00;;;;;;5036270;28;20083;-28
2022/07/23 06:41:07;;;;;;;1.85;0.73;;;18.80;1.00;;;;;;5036285;28;20045;-29
2022/07/23 06:43:33;;;;;;;1.98;0.63;;;18.80;99.90;;;;;;5037285;28;20057;-28
2022/07/23 06:46:01;;;;;;;2.80;0.50;;;19.20;99.90;;;;;;5036718;28;20128;-28
2022/07/23 06:48:28;;;;;;;1.20;0.22;;;19.30;1.00;;;;;;5052058;28;20050;-29
2022/07/23 06:50:54;;;;;;;1.73;0.20;;;19.30;99.90;;;;;;5036851;28;20482;-29
2022/07/23 06:53:20;;;;;;;3.75;0.55;;;19.20;99.90;;;;;;5035356;28;20045;-29
2022/07/23 06:55:45;;;;;;;1.92;0.30;;;19.20;99.90;;;;;;5034991;28;20052;-28
2022/07/23 06:58:13;;;;;;;0.90;0.30;;;19.40;1.00;;;;;;5052590;28;20099;-28
2022/07/23 07:00:39;;;;;;;4.55;1.48;;;19.20;99.90;;;;;;5036372;28;20091;-28
2022/07/23 07:03:05;;;;;;;1.25;0.60;;;19.20;1.00;;;;;;5036803;28;20104;-29
2022/07/23 07:05:31;;;;;;;0.98;0.30;;;19.40;20.10;;;;;;5036362;28;20049;-28
2022/07/23 07:07:57;;;;;;;0.73;0.32;;;19.50;1.00;;;;;;5035122;28;20124;-28
2022/07/23 07:10:22;;;;;;;3.00;0.65;;;19.60;1.00;;;;;;5036149;28;20046;-29
2022/07/23 07:12:48;;;;;;;2.85;0.70;;;19.60;99.90;;;;;;5036157;28;20045;-28
2022/07/23 07:15:14;;;;;;;1.27;0.45;;;19.70;99.90;;;;;;5036191;28;20042;-28
2022/07/23 07:17:40;;;;;;;1.50;0.30;;;20.10;99.90;;;;;;5034849;28;20045;-28
2022/07/23 07:20:09;;;;;;;2.45;0.50;;;20.40;99.90;;;;;;5034899;28;20045;-28
2022/07/23 07:22:35;;;;;;;2.00;0.60;;;20.10;99.90;;;;;;5035955;28;20053;-28
2022/07/23 07:25:00;;;;;;;2.63;0.40;;;19.30;99.90;;;;;;5035799;28;20087;-28
2022/07/23 07:27:31;;;;;;;0.82;0.43;;;18.60;1.00;;;;;;5034715;28;20048;-29
2022/07/23 07:29:56;;;;;;;1.17;0.35;;;18.00;99.90;;;;;;5036449;28;20053;-28
2022/07/23 07:32:22;;;;;;;0.82;0.20;;;17.80;1.00;;;;;;5035797;28;20049;-28
2022/07/23 07:34:48;;;;;;;1.60;0.40;;;17.60;99.90;;;;;;5035694;28;20084;-28
2022/07/23 07:37:14;;;;;;;1.08;0.38;;;17.60;99.90;;;;;;5035629;28;20132;-28
2022/07/23 07:39:39;;;;;;;2.53;0.50;;;18.00;99.90;;;;;;5036243;28;20042;-28
2022/07/23 07:42:05;;;;;;;1.77;0.50;;;18.30;99.90;;;;;;5050976;28;20058;-28
2022/07/23 07:44:31;;;;;;;3.00;0.30;;;18.50;99.90;;;;;;5035192;28;20041;-28
2022/07/23 07:46:56;;;;;;;2.22;0.30;;;18.60;99.90;;;;;;5035735;28;20041;-28
2022/07/23 07:49:23;;;;;;;1.30;0.30;;;18.40;99.90;;;;;;5035439;28;20080;-28
2022/07/23 07:51:49;;;;;;;2.47;0.35;;;18.10;99.90;;;;;;5035893;28;20095;-28
2022/07/23 07:54:15;;;;;;;1.73;0.30;;;18.00;1.00;;;;;;5035958;28;20051;-28
2022/07/23 07:56:41;;;;;;;1.13;0.75;;;18.00;99.90;;;;;;5035463;28;20125;-29
2022/07/23 07:59:07;;;;;;;0.82;0.20;;;18.30;99.90;;;;;;5035288;28;20479;-29
2022/07/23 08:01:35;;;;;;;1.08;0.40;;;18.50;9.80;;;;;;5035306;28;20094;-29
2022/07/23 08:04:01;;;;;;;2.42;0.63;;;18.60;1.00;;;;;;5036016;28;20491;-28
2022/07/23 08:06:26;;;;;;;4.88;0.43;;;19.00;1.00;;;;;;5033752;28;20088;-29
2022/07/23 08:08:52;;;;;;;1.15;0.20;;;19.10;99.90;;;;;;5035070;28;20107;-28
2022/07/23 08:11:18;;;;;;;3.40;0.45;;;19.00;99.90;;;;;;5035022;28;20071;-28
2022/07/23 08:13:46;;;;;;;1.15;0.20;;;18.80;1.00;;;;;;5035260;28;20103;-28
2022/07/23 08:16:12;;;;;;;1.10;0.30;;;18.70;99.90;;;;;;5034815;28;20048;-28
2022/07/23 08:18:40;;;;;;;2.05;0.60;;;18.60;99.90;;;;;;5034580;28;20041;-28
2022/07/23 08:21:06;;;;;;;1.50;0.47;;;18.40;99.90;;;;;;5034902;28;20045;-28
2022/07/23 08:23:31;;;;;;;3.45;0.40;;;18.20;99.90;;;;;;5033758;28;20133;-28
2022/07/23 08:25:59;;;;;;;3.42;0.40;;;18.20;99.90;;;;;;5017269;28;20050;-28
2022/07/23 08:28:25;;;;;;;4.63;0.70;;;18.50;1.00;;;;;;5034829;28;20403;-28
2022/07/23 08:30:51;;;;;;;1.23;0.50;;;18.80;99.90;;;;;;5034670;28;20041;-28
2022/07/23 08:33:19;;;;;;;1.33;0.30;;;18.70;99.90;;;;;;5035488;28;20049;-28
2022/07/23 08:35:48;;;;;;;1.50;0.20;;;18.60;99.90;;;;;;5050093;28;20049;-29
2022/07/23 08:38:16;;;;;;;2.05;0.22;;;18.80;15.00;;;;;;5033326;28;20046;-28
2022/07/23 08:40:47;;;;;;;1.08;0.30;;;19.10;99.90;;;;;;5034523;28;20391;-28
2022/07/23 08:43:15;;;;;;;2.95;0.43;;;19.40;41.20;;;;;;5034744;28;20053;-29
2022/07/23 08:45:45;;;;;;;3.25;0.63;;;19.40;99.90;;;;;;5034418;28;20056;-28
2022/07/23 08:48:22;;;;;;;0.50;0.20;;;19.00;99.90;;;;;;5034638;28;20116;-28
2022/07/23 08:50:58;;;;;;;0.70;0.30;;;18.70;1.00;;;;;;5035174;28;20049;-28
2022/07/23 08:53:27;;;;;;;1.30;0.30;;;18.40;99.90;;;;;;5034370;28;20075;-28
2022/07/23 08:55:58;;;;;;;1.58;0.30;;;18.30;99.90;;;;;;5016656;28;20053;-29
2022/07/23 08:58:25;;;;;;;3.15;0.50;;;18.30;99.90;;;;;;5033318;28;20506;-28
2022/07/23 09:00:51;;;;;;;1.75;0.40;;;18.40;99.90;;;;;;5034199;28;20045;-28
2022/07/23 09:03:18;;;;;;;1.92;0.45;;;18.50;99.90;;;;;;5033185;28;20068;-28
2022/07/23 09:05:44;;;;;;;3.92;0.80;;;18.50;99.90;;;;;;5033718;28;20111;-28
2022/07/23 09:08:09;;;;;;;1.40;0.40;;;18.60;39.30;;;;;;5033707;28;20064;-29
2022/07/23 09:10:55;;;;;;;1.10;0.30;;;18.50;84.00;;;;;;5034341;28;20486;-28
2022/07/23 09:13:32;;;;;;;2.20;0.80;;;18.40;99.90;;;;;;5033993;28;20042;-28
2022/07/23 09:16:02;;;;;;;6.65;2.10;;;18.30;99.90;;;;;;5033014;28;20395;-28
2022/07/23 09:18:32;;;;;;;1.88;0.40;;;18.30;99.90;;;;;;5034790;28;20059;-28
2022/07/23 09:21:16;;;;;;;3.53;0.50;;;18.20;99.90;;;;;;5032708;28;20139;-29
2022/07/23 09:23:55;;;;;;;2.92;0.30;;;18.20;99.90;;;;;;5033916;28;20056;-28
2022/07/23 09:26:21;;;;;;;3.72;0.47;;;18.10;1.00;;;;;;5032611;28;20128;-28
2022/07/23 09:28:55;;;;;;;3.05;0.40;;;18.10;1.00;;;;;;5033136;28;20614;-29
2022/07/23 09:31:23;;;;;;;1.35;0.30;;;18.20;99.90;;;;;;5033829;28;20045;-28
2022/07/23 09:33:49;;;;;;;10.20;0.80;;;18.30;1.00;;;;;;5033730;28;20132;-29
2022/07/23 09:36:15;;;;;;;4.60;1.10;;;18.30;99.90;;;;;;5033577;28;20148;-28
2022/07/23 09:38:50;;;;;;;2.20;0.50;;;18.40;99.90;;;;;;5032168;28;20472;-28
2022/07/23 09:41:17;;;;;;;2.58;1.50;;;18.40;99.90;;;;;;5033627;28;20041;-28
2022/07/23 09:43:42;;;;;;;2.03;0.80;;;18.40;99.90;;;;;;5034115;28;20132;-29
2022/07/23 09:46:27;;;;;;;1.55;0.45;;;18.30;1.00;;;;;;5034149;28;20084;-29
2022/07/23 09:48:57;;;;;;;1.85;0.60;;;18.20;1.00;;;;;;5049052;28;20038;-29
2022/07/23 09:51:34;;;;;;;1.13;0.40;;;18.10;1.00;;;;;;5034357;28;20052;-28
2022/07/23 09:54:00;;;;;;;4.07;0.63;;;18.10;1.00;;;;;;5033837;28;20119;-28
2022/07/23 09:56:27;;;;;;;3.60;0.85;;;18.00;1.00;;;;;;5048818;28;20467;-28
2022/07/23 10:01:50;;;;;;;4.18;0.80;;;18.10;1.00;;;;;;5024582;28;20072;-28
2022/07/23 10:04:16;;;;;;;3.88;0.60;;;18.10;20.60;;;;;;5032412;28;20441;-29
2022/07/23 10:06:45;;;;;;;2.30;0.52;;;18.20;1.00;;;;;;5034814;28;20103;-28
2022/07/23 10:09:18;;;;;;;0.93;0.30;;;18.20;1.00;;;;;;5037387;28;20045;-28
2022/07/23 10:11:43;;;;;;;2.97;0.93;;;18.40;1.00;;;;;;5037338;28;20041;-28
2022/07/23 10:14:09;;;;;;;1.60;0.43;;;18.60;1.00;;;;;;5037276;28;20050;-28
2022/07/23 10:16:35;;;;;;;3.05;0.57;;;18.80;1.00;;;;;;5035981;28;20072;-28
2022/07/23 10:19:03;;;;;;;1.58;0.40;;;19.00;1.00;;;;;;5037224;28;20052;-29
2022/07/23 10:21:40;;;;;;;0.77;0.50;;;19.20;99.90;;;;;;5037164;28;20052;-28
2022/07/23 10:24:47;;;;;;;1.85;0.70;;;19.50;99.90;;;;;;5037907;28;20056;-28
2022/07/23 10:27:42;;;;;;;4.10;1.08;;;19.30;99.90;;;;;;5031211;28;20571;-28
2022/07/23 10:30:20;;;;;;;5.28;1.20;;;19.00;99.90;;;;;;5037718;28;20046;-28
2022/07/23 10:33:09;;;;;;;2.33;0.80;;;19.10;1.00;;;;;;5036887;28;20046;-28
2022/07/23 10:35:50;;;;;;;1.73;0.80;;;19.20;1.00;;;;;;5037212;28;20471;-28
2022/07/23 10:38:26;;;;;;;4.15;1.00;;;19.20;1.00;;;;;;5020044;28;20053;-29
2022/07/23 10:41:06;;;;;;;1.55;0.70;;;19.20;1.00;;;;;;5037339;28;20060;-28
2022/07/23 10:43:32;;;;;;;1.83;0.80;;;19.20;1.00;;;;;;5036144;28;20132;-28
2022/07/23 10:46:34;;;;;;;4.05;1.10;;;19.20;1.00;;;;;;5036633;28;20136;-29
2022/07/23 10:49:26;;;;;;;2.72;0.75;;;19.10;1.00;;;;;;5036698;28;20160;-28
2022/07/23 10:52:14;;;;;;;4.65;0.95;;;19.00;1.00;;;;;;5037402;28;20132;-28
2022/07/23 10:54:40;;;;;;;4.03;0.95;;;18.90;1.00;;;;;;5036577;28;20053;-29
2022/07/23 10:57:08;;;;;;;2.45;1.42;;;18.80;1.00;;;;;;5034897;28;20045;-28
2022/07/23 11:02:57;;;;;;;2.63;1.00;;;18.60;8.60;;;;;;5036454;28;20088;-28
2022/07/23 11:05:47;;;;;;;3.50;1.35;;;18.60;99.90;;;;;;5036021;28;20057;-28
2022/07/23 11:08:19;;;;;;;4.82;0.57;;;18.90;88.60;;;;;;5036077;28;20558;-28
2022/07/23 11:10:55;;;;;;;4.13;0.70;;;19.20;1.00;;;;;;5036834;28;20372;-29
2022/07/23 11:13:24;;;;;;;3.60;0.70;;;19.30;99.90;;;;;;5035591;28;20050;-28
2022/07/23 11:16:17;;;;;;;4.90;1.08;;;19.50;1.00;;;;;;5036141;28;20049;-29
2022/07/23 11:18:43;;;;;;;6.32;0.80;;;19.70;99.90;;;;;;5031343;28;20059;-28
2022/07/23 11:21:23;;;;;;;2.75;0.82;;;19.80;99.90;;;;;;5036068;28;20041;-28
2022/07/23 11:24:15;;;;;;;7.45;1.08;;;20.20;99.90;;;;;;5036002;28;20095;-28
2022/07/23 11:26:48;;;;;;;4.35;1.40;;;20.30;1.00;;;;;;5036588;28;20052;-28
2022/07/23 11:29:26;;;;;;;3.88;0.82;;;20.40;1.00;;;;;;5036749;28;20057;-31
2022/07/23 11:32:27;;;;;;;3.50;0.90;;;20.40;1.00;;;;;;5035677;28;20585;-29
2022/07/23 11:34:53;;;;;;;2.28;0.57;;;20.10;86.80;;;;;;5019131;28;20423;-28
2022/07/23 11:37:39;;;;;;;3.08;0.45;;;20.10;1.00;;;;;;5034561;28;20045;-28
2022/07/23 11:40:13;;;;;;;2.10;0.40;;;20.30;1.00;;;;;;5050923;28;20496;-29
2022/07/23 11:42:53;;;;;;;2.63;0.88;;;20.40;1.00;;;;;;5036308;28;20045;-28
2022/07/23 11:45:22;;;;;;;4.00;0.65;;;20.40;98.40;;;;;;5035654;28;20079;-28
2022/07/23 11:47:48;;;;;;;3.42;0.60;;;20.10;99.90;;;;;;5017793;28;20124;-29
2022/07/23 11:50:14;;;;;;;2.83;0.68;;;20.00;27.80;;;;;;5035240;28;20172;-28
2022/07/23 11:52:40;;;;;;;4.47;0.85;;;20.30;1.00;;;;;;5035493;28;20060;-29
2022/07/23 11:55:10;;;;;;;2.53;0.60;;;20.70;1.00;;;;;;5035697;28;20083;-28
2022/07/23 11:57:40;;;;;;;1.65;0.45;;;21.30;99.90;;;;;;5034408;28;20046;-29
2022/07/23 12:00:25;;;;;;;2.58;0.65;;;21.70;99.90;;;;;;5035343;28;20053;-29
2022/07/23 12:02:53;;;;;;;2.10;0.50;;;21.90;1.00;;;;;;5035418;28;20041;-29
2022/07/23 12:05:21;;;;;;;2.20;0.90;;;21.80;1.00;;;;;;5034898;28;20111;-29
2022/07/23 12:07:49;;;;;;;1.88;0.90;;;22.10;1.00;;;;;;5035212;28;20090;-29
2022/07/23 12:10:24;;;;;;;1.40;0.63;;;22.40;99.90;;;;;;5034208;28;20053;-29
2022/07/23 12:12:56;;;;;;;3.33;1.15;;;22.20;99.90;;;;;;5035121;28;20045;-29
2022/07/23 12:15:38;;;;;;;3.80;0.70;;;22.10;99.90;;;;;;5035538;28;20059;-30
2022/07/23 12:18:05;;;;;;;4.43;0.60;;;21.90;99.90;;;;;;5033479;28;20052;-28
2022/07/23 12:20:42;;;;;;;1.25;0.50;;;22.10;99.90;;;;;;5035538;28;20049;-29
2022/07/23 12:23:11;;;;;;;5.50;0.93;;;22.90;99.90;;;;;;5034974;28;20053;-29
2022/07/23 12:25:42;;;;;;;2.08;0.80;;;23.30;20.80;;;;;;5034736;28;20045;-29
2022/07/23 12:28:10;;;;;;;2.92;0.70;;;23.10;1.00;;;;;;5034866;28;20103;-29
2022/07/23 12:30:50;;;;;;;5.05;1.15;;;22.90;1.00;;;;;;5034342;28;20045;-29
2022/07/23 12:33:25;;;;;;;4.38;0.60;;;22.50;1.00;;;;;;5034612;28;20052;-28
2022/07/23 12:35:57;;;;;;;1.23;0.50;;;22.70;1.00;;;;;;5034707;28;20057;-29
2022/07/23 12:38:24;;;;;;;3.53;0.55;;;22.30;1.00;;;;;;5033669;28;20041;-30
2022/07/23 12:40:53;;;;;;;3.42;1.25;;;22.20;1.00;;;;;;5034827;28;20041;-28
2022/07/23 12:43:36;;;;;;;1.77;0.50;;;22.60;1.00;;;;;;5033553;28;20368;-29
2022/07/23 12:46:20;;;;;;;2.35;0.88;;;22.90;1.00;;;;;;5033330;28;20050;-30
2022/07/23 12:48:50;;;;;;;1.60;0.63;;;23.10;1.00;;;;;;5034260;28;20395;-29
2022/07/23 12:51:21;;;;;;;1.40;0.60;;;23.60;3.60;;;;;;5049812;28;20091;-29
2022/07/23 12:54:12;;;;;;;2.80;0.60;;;24.10;1.00;;;;;;5048950;28;20118;-29
2022/07/23 12:56:40;;;;;;;1.25;0.52;;;23.70;1.00;;;;;;5034908;28;20621;-29
2022/07/23 12:59:11;;;;;;;1.42;0.52;;;23.00;99.90;;;;;;5054209;28;20091;-29